This is the latest recevied weather packets stored in our database for station/object G4KVI. If no packets are shown the sender has not sent any weather packets the latest 10 day(s).
| Time | Temp. | Humidity | Pressure | Rain* | Wind** | Luminosity | Snow |
|---|---|---|---|---|---|---|---|
| 1787855404 | 20° C | 71% | 1008.9 hPa | 0 mm | - | 32 W/m² | - |
| 1787855104 | 20° C | 70% | 1009 hPa | 0 mm | - | 35 W/m² | - |
| 1787854804 | 20° C | 69% | 1009.1 hPa | 0 mm | - | 33 W/m² | - |
| 1787854504 | 20° C | 68% | 1008.8 hPa | 0 mm | - | 43 W/m² | - |
| 1787854204 | 20° C | 68% | 1009.1 hPa | 0 mm | - | 43 W/m² | - |
| 1787853904 | 20.56° C | 67% | 1009.5 hPa | 0 mm | - | 51 W/m² | - |
| 1787853604 | 20.56° C | 67% | 1009.2 hPa | 0 mm | - | 59 W/m² | - |
| 1787853304 | 20.56° C | 66% | 1009.2 hPa | 0 mm | - | 62 W/m² | - |
| 1787853004 | 21.11° C | 65% | 1009 hPa | 0 mm | - | 64 W/m² | - |
| 1787852704 | 21.11° C | 64% | 1009.3 hPa | 0 mm | - | 65 W/m² | - |
| 1787852404 | 21.11° C | 63% | 1009.2 hPa | 0 mm | - | 89 W/m² | - |
| 1787852104 | 21.67° C | 61% | 1009 hPa | 0 mm | - | 107 W/m² | - |
| 1787851804 | 21.67° C | 60% | 1009.1 hPa | 0 mm | - | 92 W/m² | - |
| 1787851504 | 21.67° C | 60% | 1008.9 hPa | 0 mm | - | 121 W/m² | - |
| 1787851204 | 22.22° C | 57% | 1009.1 hPa | 0 mm | - | 98 W/m² | - |
| 1787850904 | 22.78° C | 55% | 1009.2 hPa | 0 mm | - | 116 W/m² | - |
| 1787850604 | 22.78° C | 55% | 1009.3 hPa | 0 mm | - | 117 W/m² | - |
| 1787850304 | 22.78° C | 57% | 1009.2 hPa | 0 mm | - | 208 W/m² | - |
| 1787850004 | 22.78° C | 56% | 1009.4 hPa | 0 mm | - | 221 W/m² | - |
| 1787849704 | 22.78° C | 54% | 1009.5 hPa | 0 mm | - | 219 W/m² | - |
| 1787849404 | 22.78° C | 53% | 1009.5 hPa | 0 mm | - | 191 W/m² | - |
| 1787849104 | 23.33° C | 54% | 1009.4 hPa | 0 mm | - | 197 W/m² | - |
| 1787848804 | 23.33° C | 54% | 1009.4 hPa | 0 mm | - | 210 W/m² | - |
| 1787848504 | 23.33° C | 53% | 1009.2 hPa | 0 mm | - | 256 W/m² | - |
| 1787848204 | 23.33° C | 52% | 1009.1 hPa | 0 mm | - | 276 W/m² | - |
* Rain latest hour (hover to see other rain measurements)
** Current wind speed in m/s (hover to see current wind gust speed)